Time,TemperatureF,DewpointF,PressureIn,WindDirection,WindDirectionDegrees,WindSpeedMPH,WindSpeedGustMPH,Humidity,HourlyPrecipIn,Conditions,Clouds,dailyrainin,SoftwareType,DateUTC
2013-12-26 00:00:00,22.4,19.7,30.46,SW,235,0.0,1.0,89,0.00,,OVC055,0.00,VWS V14.01,2013-12-26 05:00:00,
2013-12-26 00:01:00,22.4,19.9,30.46,SW,235,0.0,1.0,90,0.00,,OVC055,0.00,VWS V14.01,2013-12-26 05:01:00,
2013-12-26 00:06:00,22.4,20.2,30.46,SW,235,0.0,1.0,91,0.00,,OVC055,0.00,VWS V14.01,2013-12-26 05:06:00,
2013-12-26 00:11:00,22.4,20.2,30.46,SW,235,0.0,1.0,91,0.00,,OVC055,0.00,VWS V14.01,2013-12-26 05:11:00,
2013-12-26 00:16:00,22.3,20.1,30.46,SW,235,0.0,1.0,91,0.00,,OVC055,0.00,VWS V14.01,2013-12-26 05:16:00,
2013-12-26 00:21:00,22.2,20.0,30.45,SW,235,0.0,1.0,91,0.00,,OVC055,0.00,VWS V14.01,2013-12-26 05:21:00,
2013-12-26 00:26:00,22.1,20.1,30.45,SW,235,0.0,1.0,92,0.00,,OVC055,0.00,VWS V14.01,2013-12-26 05:26:00,
2013-12-26 00:30:00,22.1,20.1,30.45,SW,235,2.0,2.0,92,0.00,,OVC055,0.00,VWS V14.01,2013-12-26 05:30:00,
2013-12-26 00:31:00,22.0,20.0,30.45,NNW,337,3.0,6.0,92,0.00,,OVC055,0.00,VWS V14.01,2013-12-26 05:31:00,
2013-12-26 00:36:00,22.0,20.0,30.44,NNW,328,0.0,6.0,92,0.00,,OVC055,0.00,VWS V14.01,2013-12-26 05:36:00,
2013-12-26 00:41:00,22.0,20.0,30.44,NNW,328,0.0,6.0,92,0.00,,OVC055,0.00,VWS V14.01,2013-12-26 05:41:00,
2013-12-26 00:46:00,22.1,20.1,30.45,NNW,328,0.0,6.0,92,0.00,,OVC055,0.00,VWS V14.01,2013-12-26 05:46:00,
2013-12-26 00:51:00,22.0,20.0,30.44,NNW,328,0.0,6.0,92,0.00,,OVC055,0.00,VWS V14.01,2013-12-26 05:51:00,
2013-12-26 00:56:00,21.8,19.6,30.44,NNW,328,0.0,6.0,91,0.00,,OVC055,0.00,VWS V14.01,2013-12-26 05:56:00,
2013-12-26 01:00:00,21.8,19.8,30.44,NNW,328,0.0,6.0,92,0.00,,OVC055,0.00,VWS V14.01,2013-12-26 06:00:00,
2013-12-26 01:01:00,21.7,19.7,30.43,NNW,328,0.0,0.0,92,0.00,,OVC055,0.00,VWS V14.01,2013-12-26 06:01:00,
2013-12-26 01:06:00,21.7,19.7,30.43,NNW,328,0.0,1.0,92,0.00,,OVC055,0.00,VWS V14.01,2013-12-26 06:06:00,
2013-12-26 01:11:00,21.7,19.7,30.43,NNW,328,0.0,1.0,92,0.00,,OVC055,0.00,VWS V14.01,2013-12-26 06:11:00,
2013-12-26 01:16:00,21.7,19.7,30.44,NNW,328,0.0,1.0,92,0.00,,OVC055,0.00,VWS V14.01,2013-12-26 06:16:00,
2013-12-26 01:21:00,21.6,19.6,30.44,NNW,328,0.0,1.0,92,0.00,,OVC055,0.00,VWS V14.01,2013-12-26 06:21:00,
2013-12-26 01:26:00,21.5,19.5,30.43,NNW,328,0.0,1.0,92,0.00,,OVC055,0.00,VWS V14.01,2013-12-26 06:26:00,
2013-12-26 01:30:00,21.4,19.4,30.43,NNW,328,0.0,1.0,92,0.00,,OVC055,0.00,VWS V14.01,2013-12-26 06:30:00,
2013-12-26 01:31:00,21.4,19.4,30.43,NNW,328,0.0,0.0,92,0.00,,OVC055,0.00,VWS V14.01,2013-12-26 06:31:00,
2013-12-26 01:36:00,21.3,19.3,30.43,NNW,328,0.0,1.0,92,0.00,,OVC055,0.00,VWS V14.01,2013-12-26 06:36:00,
2013-12-26 01:41:00,21.3,19.3,30.43,NNW,328,0.0,1.0,92,0.00,,OVC055,0.00,VWS V14.01,2013-12-26 06:41:00,
2013-12-26 01:46:00,21.3,19.6,30.43,NNW,328,0.0,1.0,93,0.00,,OVC055,0.00,VWS V14.01,2013-12-26 06:46:00,
2013-12-26 01:51:00,21.2,19.2,30.43,NNW,328,0.0,1.0,92,0.00,,OVC055,0.00,VWS V14.01,2013-12-26 06:51:00,
2013-12-26 01:56:00,21.1,19.1,30.43,NNW,328,0.0,1.0,92,0.00,,OVC055,0.00,VWS V14.01,2013-12-26 06:56:00,
2013-12-26 02:00:00,21.1,19.4,30.43,NNW,328,0.0,1.0,93,0.00,,OVC055,0.00,VWS V14.01,2013-12-26 07:00:00,
2013-12-26 02:01:00,21.1,19.4,30.43,NNW,328,0.0,0.0,93,0.00,,OVC055,0.00,VWS V14.01,2013-12-26 07:01:00,
2013-12-26 02:06:00,21.0,19.3,30.43,NNW,328,0.0,0.0,93,0.00,,OVC055,0.00,VWS V14.01,2013-12-26 07:06:00,
2013-12-26 02:11:00,20.9,19.2,30.43,NNW,328,0.0,0.0,93,0.00,,OVC055,0.00,VWS V14.01,2013-12-26 07:11:00,
2013-12-26 02:16:00,20.7,19.0,30.43,NNW,328,0.0,0.0,93,0.00,,OVC055,0.00,VWS V14.01,2013-12-26 07:16:00,
2013-12-26 02:21:00,20.6,18.9,30.43,NNW,328,0.0,1.0,93,0.00,,OVC055,0.00,VWS V14.01,2013-12-26 07:21:00,
2013-12-26 02:26:00,20.7,19.0,30.43,NNW,328,0.0,1.0,93,0.00,,OVC055,0.00,VWS V14.01,2013-12-26 07:26:00,
2013-12-26 02:30:00,20.7,19.0,30.43,NNW,328,0.0,1.0,93,0.00,,OVC055,0.00,VWS V14.01,2013-12-26 07:30:00,
2013-12-26 02:31:00,20.8,19.1,30.43,NNW,328,0.0,0.0,93,0.00,,OVC055,0.00,VWS V14.01,2013-12-26 07:31:00,
2013-12-26 02:35:00,20.9,19.2,30.43,NNW,328,0.0,1.0,93,0.00,,OVC055,0.00,VWS V14.01,2013-12-26 07:35:00,
2013-12-26 02:40:00,21.0,19.5,30.43,NNW,328,0.0,1.0,94,0.00,,OVC055,0.00,VWS V14.01,2013-12-26 07:40:00,
2013-12-26 02:45:00,21.1,19.4,30.43,NNW,328,0.0,1.0,93,0.00,,OVC055,0.00,VWS V14.01,2013-12-26 07:45:00,
2013-12-26 02:50:00,21.2,19.5,30.43,NNW,328,0.0,1.0,93,0.00,,OVC055,0.00,VWS V14.01,2013-12-26 07:50:00,
2013-12-26 02:55:00,21.2,19.5,30.44,NNW,328,0.0,1.0,93,0.00,,OVC055,0.00,VWS V14.01,2013-12-26 07:55:00,
2013-12-26 03:00:00,21.1,19.1,30.44,NNW,328,0.0,0.0,92,0.00,,OVC055,0.00,VWS V14.01,2013-12-26 08:00:00,
2013-12-26 03:05:00,21.0,19.3,30.44,NNW,328,0.0,0.0,93,0.00,,OVC055,0.00,VWS V14.01,2013-12-26 08:05:00,
2013-12-26 03:10:00,20.9,19.2,30.43,NNW,328,0.0,1.0,93,0.00,,OVC055,0.00,VWS V14.01,2013-12-26 08:10:00,
2013-12-26 03:15:00,20.9,19.2,30.43,NNW,328,0.0,1.0,93,0.00,,OVC055,0.00,VWS V14.01,2013-12-26 08:15:00,
2013-12-26 03:20:00,21.0,19.3,30.43,NNW,328,0.0,1.0,93,0.00,,OVC055,0.00,VWS V14.01,2013-12-26 08:20:00,
2013-12-26 03:25:00,21.0,19.5,30.42,NNW,328,0.0,1.0,94,0.00,,OVC055,0.00,VWS V14.01,2013-12-26 08:25:00,
2013-12-26 03:30:00,21.0,19.3,30.42,NNW,328,0.0,0.0,93,0.00,,OVC055,0.00,VWS V14.01,2013-12-26 08:30:00,
2013-12-26 03:35:00,20.9,19.2,30.42,NNW,328,0.0,0.0,93,0.00,,OVC055,0.00,VWS V14.01,2013-12-26 08:35:00,
2013-12-26 03:40:00,20.9,19.2,30.42,NNW,328,0.0,0.0,93,0.00,,OVC055,0.00,VWS V14.01,2013-12-26 08:40:00,
2013-12-26 03:45:00,20.9,19.2,30.42,NNW,328,0.0,1.0,93,0.00,,OVC055,0.00,VWS V14.01,2013-12-26 08:45:00,
2013-12-26 03:50:00,21.0,19.5,30.43,NNW,328,0.0,1.0,94,0.00,,OVC055,0.00,VWS V14.01,2013-12-26 08:50:00,
2013-12-26 03:55:00,21.0,19.5,30.42,NNW,328,0.0,1.0,94,0.00,,OVC055,0.00,VWS V14.01,2013-12-26 08:55:00,
2013-12-26 04:00:00,21.0,19.3,30.42,NNW,328,0.0,0.0,93,0.00,,OVC055,0.00,VWS V14.01,2013-12-26 09:00:00,
2013-12-26 04:05:00,21.0,19.3,30.42,NNW,328,0.0,0.0,93,0.00,,OVC055,0.00,VWS V14.01,2013-12-26 09:05:00,
2013-12-26 04:10:00,20.9,19.2,30.42,NNW,328,0.0,0.0,93,0.00,,OVC055,0.00,VWS V14.01,2013-12-26 09:10:00,
2013-12-26 04:15:00,20.7,19.0,30.42,NNW,328,0.0,1.0,93,0.00,,OVC055,0.00,VWS V14.01,2013-12-26 09:15:00,
2013-12-26 04:20:00,20.7,19.0,30.41,NNW,328,0.0,1.0,93,0.00,,OVC055,0.00,VWS V14.01,2013-12-26 09:20:00,
2013-12-26 04:25:00,20.8,19.1,30.42,NNW,328,0.0,1.0,93,0.00,,OVC055,0.00,VWS V14.01,2013-12-26 09:25:00,
2013-12-26 04:30:00,20.8,19.1,30.41,NNW,328,0.0,0.0,93,0.00,,OVC055,0.00,VWS V14.01,2013-12-26 09:30:00,
2013-12-26 04:35:00,20.7,19.0,30.42,NNW,328,0.0,0.0,93,0.00,,OVC055,0.00,VWS V14.01,2013-12-26 09:35:00,
2013-12-26 04:40:00,20.5,18.8,30.42,NNW,328,0.0,0.0,93,0.00,,OVC055,0.00,VWS V14.01,2013-12-26 09:40:00,
2013-12-26 04:45:00,20.4,19.0,30.42,NNW,328,0.0,0.0,94,0.00,,OVC055,0.00,VWS V14.01,2013-12-26 09:45:00,
2013-12-26 04:50:00,20.4,19.0,30.41,NNW,328,0.0,0.0,94,0.00,,OVC055,0.00,VWS V14.01,2013-12-26 09:50:00,
2013-12-26 04:55:00,20.4,19.0,30.42,NNW,328,0.0,0.0,94,0.00,,OVC055,0.00,VWS V14.01,2013-12-26 09:55:00,
2013-12-26 05:00:00,20.3,18.9,30.41,NNW,328,0.0,0.0,94,0.00,,OVC055,0.00,VWS V14.01,2013-12-26 10:00:00,
2013-12-26 05:05:00,20.3,18.9,30.42,NNW,328,0.0,0.0,94,0.00,,OVC055,0.00,VWS V14.01,2013-12-26 10:05:00,
2013-12-26 05:10:00,20.2,18.8,30.41,NNW,328,0.0,0.0,94,0.00,,OVC055,0.00,VWS V14.01,2013-12-26 10:10:00,
2013-12-26 05:15:00,20.1,18.6,30.41,NNW,328,0.0,0.0,94,0.00,,OVC055,0.00,VWS V14.01,2013-12-26 10:15:00,
2013-12-26 05:20:00,20.2,19.0,30.41,NNW,328,0.0,0.0,95,0.00,,OVC055,0.00,VWS V14.01,2013-12-26 10:20:00,
2013-12-26 05:25:00,20.2,18.8,30.41,NNW,328,0.0,1.0,94,0.00,,OVC055,0.00,VWS V14.01,2013-12-26 10:25:00,
2013-12-26 05:30:00,20.1,18.6,30.41,NNW,328,0.0,1.0,94,0.00,,OVC055,0.00,VWS V14.01,2013-12-26 10:30:00,
2013-12-26 05:35:00,20.0,18.5,30.41,NNW,328,0.0,1.0,94,0.00,,OVC055,0.00,VWS V14.01,2013-12-26 10:35:00,
2013-12-26 05:40:00,20.0,18.5,30.41,NNW,328,0.0,1.0,94,0.00,,OVC055,0.00,VWS V14.01,2013-12-26 10:40:00,
2013-12-26 05:45:00,20.0,18.5,30.41,NNW,328,0.0,1.0,94,0.00,,OVC055,0.00,VWS V14.01,2013-12-26 10:45:00,
2013-12-26 05:50:00,19.9,18.5,30.41,NNW,328,0.0,1.0,94,0.00,,OVC055,0.00,VWS V14.01,2013-12-26 10:50:00,
2013-12-26 05:55:00,19.8,18.4,30.41,NNW,328,0.0,1.0,94,0.00,,OVC055,0.00,VWS V14.01,2013-12-26 10:55:00,
2013-12-26 06:00:00,19.8,18.4,30.41,NNW,328,0.0,1.0,94,0.00,,OVC055,0.00,VWS V14.01,2013-12-26 11:00:00,
2013-12-26 06:05:00,19.8,18.6,30.41,NNW,328,0.0,1.0,95,0.00,,OVC055,0.00,VWS V14.01,2013-12-26 11:05:00,
2013-12-26 06:10:00,20.0,18.8,30.42,NNW,328,0.0,1.0,95,0.00,,OVC055,0.00,VWS V14.01,2013-12-26 11:10:00,
2013-12-26 06:15:00,20.0,18.8,30.42,NNW,328,0.0,1.0,95,0.00,,OVC055,0.00,VWS V14.01,2013-12-26 11:15:00,
2013-12-26 06:20:00,20.1,18.9,30.42,NNW,328,0.0,1.0,95,0.00,,OVC055,0.00,VWS V14.01,2013-12-26 11:20:00,
2013-12-26 06:25:00,20.1,18.9,30.42,NNW,328,0.0,1.0,95,0.00,,OVC055,0.00,VWS V14.01,2013-12-26 11:25:00,
2013-12-26 06:30:00,20.0,18.8,30.42,NNW,328,0.0,1.0,95,0.00,,OVC055,0.00,VWS V14.01,2013-12-26 11:30:00,
2013-12-26 06:35:00,19.8,18.6,30.42,NNW,328,0.0,1.0,95,0.00,,OVC055,0.00,VWS V14.01,2013-12-26 11:35:00,
2013-12-26 06:40:00,19.7,18.5,30.42,NNW,328,0.0,1.0,95,0.00,,OVC055,0.00,VWS V14.01,2013-12-26 11:40:00,
2013-12-26 06:45:00,19.7,18.5,30.42,NNW,328,0.0,1.0,95,0.00,,OVC055,0.00,VWS V14.01,2013-12-26 11:45:00,
2013-12-26 06:50:00,19.7,18.5,30.42,NNW,328,0.0,1.0,95,0.00,,OVC055,0.00,VWS V14.01,2013-12-26 11:50:00,
2013-12-26 06:55:00,19.7,18.5,30.42,NNW,328,0.0,1.0,95,0.00,,OVC055,0.00,VWS V14.01,2013-12-26 11:55:00,
2013-12-26 07:00:00,19.7,18.5,30.42,NNW,328,0.0,0.0,95,0.00,,OVC055,0.00,VWS V14.01,2013-12-26 12:00:00,
2013-12-26 07:05:00,19.6,18.4,30.42,NNW,328,0.0,1.0,95,0.00,,OVC055,0.00,VWS V14.01,2013-12-26 12:05:00,
2013-12-26 07:10:00,19.6,18.4,30.42,NNW,328,0.0,1.0,95,0.00,,OVC055,0.00,VWS V14.01,2013-12-26 12:10:00,
2013-12-26 07:15:00,19.5,18.3,30.42,NNW,328,1.0,1.0,95,0.00,,OVC055,0.00,VWS V14.01,2013-12-26 12:15:00,
2013-12-26 07:20:00,19.6,18.6,30.43,NNW,328,0.0,1.0,96,0.00,,OVC055,0.00,VWS V14.01,2013-12-26 12:20:00,
2013-12-26 07:25:00,19.6,18.6,30.43,NNW,328,0.0,1.0,96,0.00,,OVC055,0.00,VWS V14.01,2013-12-26 12:25:00,
2013-12-26 07:30:00,19.7,18.8,30.43,NNW,328,0.0,0.0,96,0.00,,OVC055,0.00,VWS V14.01,2013-12-26 12:30:00,
2013-12-26 07:35:00,19.6,18.6,30.43,NNW,328,0.0,0.0,96,0.00,,OVC055,0.00,VWS V14.01,2013-12-26 12:35:00,
2013-12-26 07:40:00,19.6,18.6,30.43,NNW,328,0.0,0.0,96,0.00,,OVC055,0.00,VWS V14.01,2013-12-26 12:40:00,
2013-12-26 07:45:00,19.6,18.6,30.43,NNW,328,0.0,0.0,96,0.00,,OVC055,0.00,VWS V14.01,2013-12-26 12:45:00,
2013-12-26 07:50:00,19.5,18.5,30.44,NNW,328,0.0,1.0,96,0.00,,OVC055,0.00,VWS V14.01,2013-12-26 12:50:00,
2013-12-26 07:55:00,19.5,18.5,30.44,NNW,328,0.0,1.0,96,0.00,,OVC055,0.00,VWS V14.01,2013-12-26 12:55:00,
2013-12-26 07:59:00,19.5,18.5,30.44,NNW,328,0.0,1.0,96,0.00,,OVC055,0.00,VWS V14.01,2013-12-26 12:59:00,
2013-12-26 08:00:00,19.5,18.5,30.44,NNW,328,1.0,1.0,96,0.00,,OVC055,0.00,VWS V14.01,2013-12-26 13:00:00,
2013-12-26 08:04:00,19.4,18.5,30.44,NNW,328,0.0,1.0,96,0.00,,OVC055,0.00,VWS V14.01,2013-12-26 13:04:00,
2013-12-26 08:09:00,19.4,18.5,30.45,NNW,328,0.0,1.0,96,0.00,,OVC055,0.00,VWS V14.01,2013-12-26 13:09:00,
2013-12-26 08:14:00,19.4,18.5,30.45,NNW,328,0.0,1.0,96,0.00,,OVC055,0.00,VWS V14.01,2013-12-26 13:14:00,
2013-12-26 08:19:00,19.6,18.6,30.44,NNW,328,0.0,1.0,96,0.00,,OVC055,0.00,VWS V14.01,2013-12-26 13:19:00,
2013-12-26 08:24:00,19.7,18.8,30.45,NNW,328,0.0,1.0,96,0.00,,OVC055,0.00,VWS V14.01,2013-12-26 13:24:00,
2013-12-26 08:29:00,19.9,18.9,30.45,NNW,328,0.0,0.0,96,0.00,,OVC055,0.00,VWS V14.01,2013-12-26 13:29:00,
2013-12-26 08:30:00,19.9,18.9,30.44,NNW,328,0.0,1.0,96,0.00,,OVC055,0.00,VWS V14.01,2013-12-26 13:30:00,
2013-12-26 08:34:00,20.0,19.0,30.45,NNW,328,0.0,1.0,96,0.00,,OVC055,0.00,VWS V14.01,2013-12-26 13:34:00,
2013-12-26 08:39:00,20.1,19.1,30.45,NNW,328,0.0,1.0,96,0.00,,OVC055,0.00,VWS V14.01,2013-12-26 13:39:00,
2013-12-26 08:44:00,20.2,19.2,30.45,NNW,328,0.0,1.0,96,0.00,,OVC055,0.00,VWS V14.01,2013-12-26 13:44:00,
2013-12-26 08:49:00,20.4,19.4,30.45,NNW,328,0.0,1.0,96,0.00,,OVC055,0.00,VWS V14.01,2013-12-26 13:49:00,
2013-12-26 08:54:00,20.5,19.5,30.45,NNW,328,0.0,1.0,96,0.00,,OVC055,0.00,VWS V14.01,2013-12-26 13:54:00,
2013-12-26 08:59:00,20.7,20.0,30.45,NNW,328,0.0,0.0,97,0.00,,OVC055,0.00,VWS V14.01,2013-12-26 13:59:00,
2013-12-26 09:00:00,20.6,19.6,30.45,NNW,328,0.0,1.0,96,0.00,,OVC055,0.00,VWS V14.01,2013-12-26 14:00:00,
2013-12-26 09:04:00,21.0,20.3,30.46,NNW,328,0.0,0.0,97,0.00,,OVC055,0.00,VWS V14.01,2013-12-26 14:04:00,
2013-12-26 09:09:00,21.3,20.6,30.46,NNW,328,0.0,0.0,97,0.00,,OVC055,0.00,VWS V14.01,2013-12-26 14:09:00,
2013-12-26 09:14:00,22.0,21.3,30.46,NNW,328,1.0,1.0,97,0.00,,OVC055,0.00,VWS V14.01,2013-12-26 14:14:00,
2013-12-26 09:19:00,22.6,21.9,30.45,NNW,328,0.0,2.0,97,0.00,,OVC055,0.00,VWS V14.01,2013-12-26 14:19:00,
2013-12-26 09:24:00,23.1,22.1,30.46,NNW,328,0.0,2.0,96,0.00,,OVC055,0.00,VWS V14.01,2013-12-26 14:24:00,
2013-12-26 09:29:00,23.5,22.3,30.46,NNW,328,0.0,0.0,95,0.00,,OVC055,0.00,VWS V14.01,2013-12-26 14:29:00,
2013-12-26 09:30:00,23.4,22.2,30.46,NNW,328,0.0,2.0,95,0.00,,OVC055,0.00,VWS V14.01,2013-12-26 14:30:00,
2013-12-26 09:34:00,23.7,22.2,30.46,NNW,328,0.0,0.0,94,0.00,,OVC055,0.00,VWS V14.01,2013-12-26 14:34:00,
2013-12-26 09:39:00,23.9,22.4,30.46,NNW,328,0.0,0.0,94,0.00,,OVC055,0.00,VWS V14.01,2013-12-26 14:39:00,
2013-12-26 09:43:00,24.1,22.4,30.46,NNW,328,0.0,0.0,93,0.00,,OVC055,0.00,VWS V14.01,2013-12-26 14:43:00,
2013-12-26 09:48:00,24.5,22.8,30.46,NNW,328,0.0,1.0,93,0.00,,OVC055,0.00,VWS V14.01,2013-12-26 14:48:00,
2013-12-26 09:53:00,24.8,23.1,30.46,NNW,328,0.0,1.0,93,0.00,,OVC055,0.00,VWS V14.01,2013-12-26 14:53:00,
2013-12-26 09:58:00,25.1,23.1,30.46,NNW,328,0.0,0.0,92,0.00,,OVC055,0.00,VWS V14.01,2013-12-26 14:58:00,
2013-12-26 10:00:00,25.0,23.0,30.46,NNW,328,0.0,1.0,92,0.00,,OVC055,0.00,VWS V14.01,2013-12-26 15:00:00,
2013-12-26 10:03:00,25.6,23.3,30.46,NNW,328,0.0,1.0,91,0.00,,OVC055,0.00,VWS V14.01,2013-12-26 15:03:00,
2013-12-26 10:08:00,26.2,23.9,30.47,NNW,328,0.0,1.0,91,0.00,,OVC055,0.00,VWS V14.01,2013-12-26 15:08:00,
2013-12-26 10:13:00,26.6,24.3,30.46,NNW,328,0.0,1.0,91,0.00,,OVC055,0.00,VWS V14.01,2013-12-26 15:13:00,
2013-12-26 10:18:00,27.1,24.6,30.46,NNW,328,0.0,1.0,90,0.00,,OVC055,0.00,VWS V14.01,2013-12-26 15:18:00,
2013-12-26 10:23:00,27.6,25.1,30.46,NNW,328,0.0,1.0,90,0.00,,OVC055,0.00,VWS V14.01,2013-12-26 15:23:00,
2013-12-26 10:28:00,28.0,24.9,30.46,NNW,328,0.0,0.0,88,0.00,,OVC055,0.00,VWS V14.01,2013-12-26 15:28:00,
2013-12-26 10:30:00,27.9,24.8,30.46,NNW,328,0.0,1.0,88,0.00,,OVC055,0.00,VWS V14.01,2013-12-26 15:30:00,
2013-12-26 10:33:00,28.4,25.3,30.46,NNW,328,0.0,1.0,88,0.00,,OVC055,0.00,VWS V14.01,2013-12-26 15:33:00,
2013-12-26 10:38:00,28.9,25.8,30.46,NNW,328,0.0,1.0,88,0.00,,OVC055,0.00,VWS V14.01,2013-12-26 15:38:00,
2013-12-26 10:43:00,29.6,25.9,30.46,NNW,328,0.0,1.0,86,0.00,,OVC055,0.00,VWS V14.01,2013-12-26 15:43:00,
2013-12-26 10:48:00,30.2,26.0,30.45,NNW,328,0.0,1.0,84,0.00,,OVC055,0.00,VWS V14.01,2013-12-26 15:48:00,
2013-12-26 10:53:00,30.9,26.4,30.45,NNW,328,0.0,1.0,83,0.00,,OVC055,0.00,VWS V14.01,2013-12-26 15:53:00,
2013-12-26 10:58:00,31.5,26.4,30.45,NNW,328,0.0,0.0,81,0.00,,OVC055,0.00,VWS V14.01,2013-12-26 15:58:00,
2013-12-26 11:00:00,31.4,26.5,30.45,NNW,328,0.0,1.0,82,0.00,,OVC055,0.00,VWS V14.01,2013-12-26 16:00:00,
2013-12-26 11:03:00,32.5,26.7,30.45,NNW,328,0.0,1.0,79,0.00,,OVC055,0.00,VWS V14.01,2013-12-26 16:03:00,
2013-12-26 11:08:00,33.5,26.8,30.44,NNW,328,0.0,1.0,76,0.00,,OVC055,0.00,VWS V14.01,2013-12-26 16:08:00,
2013-12-26 11:13:00,34.6,27.5,30.44,NNW,328,0.0,1.0,75,0.00,,OVC055,0.00,VWS V14.01,2013-12-26 16:13:00,
2013-12-26 11:18:00,35.5,27.4,30.44,NNW,328,0.0,1.0,72,0.00,,OVC055,0.00,VWS V14.01,2013-12-26 16:18:00,
2013-12-26 11:23:00,36.4,27.6,30.44,NNW,328,0.0,1.0,70,0.00,,OVC055,0.00,VWS V14.01,2013-12-26 16:23:00,
2013-12-26 11:28:00,37.2,28.0,30.43,NNW,328,0.0,0.0,69,0.00,,OVC055,0.00,VWS V14.01,2013-12-26 16:28:00,
2013-12-26 11:30:00,37.1,27.9,30.43,NNW,328,0.0,1.0,69,0.00,,OVC055,0.00,VWS V14.01,2013-12-26 16:30:00,
2013-12-26 11:33:00,38.0,28.8,30.43,NNW,328,0.0,1.0,69,0.00,,OVC055,0.00,VWS V14.01,2013-12-26 16:33:00,
2013-12-26 11:38:00,38.6,28.2,30.43,North,350,0.0,1.0,66,0.00,,OVC055,0.00,VWS V14.01,2013-12-26 16:38:00,
2013-12-26 11:43:00,39.2,28.4,30.42,North,350,0.0,1.0,65,0.00,,OVC055,0.00,VWS V14.01,2013-12-26 16:43:00,
2013-12-26 11:48:00,39.5,27.6,30.42,North,350,0.0,1.0,62,0.00,,OVC055,0.00,VWS V14.01,2013-12-26 16:48:00,
2013-12-26 11:53:00,39.9,28.0,30.42,North,350,0.0,1.0,62,0.00,,OVC055,0.00,VWS V14.01,2013-12-26 16:53:00,
2013-12-26 11:58:00,40.4,28.4,30.41,North,350,0.0,0.0,62,0.00,,OVC055,0.00,VWS V14.01,2013-12-26 16:58:00,
2013-12-26 12:00:00,40.3,27.9,30.42,North,350,0.0,1.0,61,0.00,,OVC055,0.00,VWS V14.01,2013-12-26 17:00:00,
2013-12-26 12:03:00,41.1,27.9,30.41,North,350,0.0,2.0,59,0.00,,OVC055,0.00,VWS V14.01,2013-12-26 17:03:00,
2013-12-26 12:08:00,41.5,29.1,30.41,North,350,0.0,2.0,61,0.00,,OVC055,0.00,VWS V14.01,2013-12-26 17:08:00,
2013-12-26 12:13:00,41.9,29.0,30.41,North,350,0.0,2.0,60,0.00,,OVC055,0.00,VWS V14.01,2013-12-26 17:13:00,
2013-12-26 12:18:00,42.6,28.9,30.41,North,350,0.0,2.0,58,0.00,,OVC055,0.00,VWS V14.01,2013-12-26 17:18:00,
2013-12-26 12:23:00,43.4,28.3,30.41,North,350,0.0,2.0,55,0.00,,OVC055,0.00,VWS V14.01,2013-12-26 17:23:00,
2013-12-26 12:28:00,43.7,28.2,30.40,North,350,0.0,0.0,54,0.00,,OVC055,0.00,VWS V14.01,2013-12-26 17:28:00,
2013-12-26 12:30:00,43.7,28.6,30.40,North,350,0.0,2.0,55,0.00,,OVC055,0.00,VWS V14.01,2013-12-26 17:30:00,
2013-12-26 12:33:00,43.8,28.7,30.40,North,350,0.0,1.0,55,0.00,,OVC055,0.00,VWS V14.01,2013-12-26 17:33:00,
2013-12-26 12:38:00,43.9,28.8,30.39,North,350,0.0,1.0,55,0.00,,OVC055,0.00,VWS V14.01,2013-12-26 17:38:00,
2013-12-26 12:43:00,44.1,29.4,30.39,North,350,0.0,2.0,56,0.00,,OVC055,0.00,VWS V14.01,2013-12-26 17:43:00,
2013-12-26 12:48:00,44.3,29.2,30.38,North,355,0.0,2.0,55,0.00,,OVC055,0.00,VWS V14.01,2013-12-26 17:48:00,
2013-12-26 12:53:00,44.4,28.8,30.38,North,355,0.0,2.0,54,0.00,,OVC055,0.00,VWS V14.01,2013-12-26 17:53:00,
2013-12-26 12:58:00,44.6,29.0,30.38,North,355,0.0,0.0,54,0.00,,OVC055,0.00,VWS V14.01,2013-12-26 17:58:00,
2013-12-26 13:00:00,44.6,29.0,30.38,North,355,0.0,2.0,54,0.00,,OVC055,0.00,VWS V14.01,2013-12-26 18:00:00,
2013-12-26 13:03:00,45.1,29.9,30.38,North,355,1.0,1.0,55,0.00,,OVC055,0.00,VWS V14.01,2013-12-26 18:03:00,
2013-12-26 13:08:00,45.2,30.9,30.37,NNE,27,2.0,5.0,57,0.00,,OVC055,0.00,VWS V14.01,2013-12-26 18:08:00,
2013-12-26 13:13:00,45.2,29.6,30.37,NNE,26,1.0,5.0,54,0.00,,OVC055,0.00,VWS V14.01,2013-12-26 18:13:00,
2013-12-26 13:18:00,45.5,29.8,30.37,North,9,2.0,5.0,54,0.00,,OVC055,0.00,VWS V14.01,2013-12-26 18:18:00,
2013-12-26 13:23:00,45.6,30.4,30.37,North,9,0.0,5.0,55,0.00,,OVC055,0.00,VWS V14.01,2013-12-26 18:23:00,
2013-12-26 13:28:00,45.8,28.7,30.37,North,9,0.0,0.0,51,0.00,,OVC055,0.00,VWS V14.01,2013-12-26 18:28:00,
2013-12-26 13:30:00,45.8,28.7,30.37,North,9,0.0,5.0,51,0.00,,OVC055,0.00,VWS V14.01,2013-12-26 18:30:00,
2013-12-26 13:33:00,46.2,30.0,30.37,North,9,0.0,1.0,53,0.00,,OVC055,0.00,VWS V14.01,2013-12-26 18:33:00,
2013-12-26 13:38:00,46.3,30.1,30.36,North,10,1.0,2.0,53,0.00,,OVC055,0.00,VWS V14.01,2013-12-26 18:38:00,
2013-12-26 13:43:00,46.3,29.2,30.36,NNE,18,0.0,2.0,51,0.00,,OVC055,0.00,VWS V14.01,2013-12-26 18:43:00,
2013-12-26 13:48:00,46.6,28.5,30.36,NNE,18,0.0,3.0,49,0.00,,OVC055,0.00,VWS V14.01,2013-12-26 18:48:00,
2013-12-26 13:53:00,46.9,29.7,30.35,NNE,19,0.0,3.0,51,0.00,,OVC055,0.00,VWS V14.01,2013-12-26 18:53:00,
2013-12-26 13:58:00,47.3,29.1,30.35,NNE,18,0.0,0.0,49,0.00,,OVC055,0.00,VWS V14.01,2013-12-26 18:58:00,
2013-12-26 14:00:00,47.2,29.5,30.35,NNE,19,0.0,3.0,50,0.00,,OVC055,0.00,VWS V14.01,2013-12-26 19:00:00,
2013-12-26 14:03:00,47.8,29.6,30.35,NNE,19,0.0,1.0,49,0.00,,OVC055,0.00,VWS V14.01,2013-12-26 19:03:00,
2013-12-26 14:08:00,48.0,30.3,30.35,NNE,13,3.0,4.0,50,0.00,,OVC055,0.00,VWS V14.01,2013-12-26 19:08:00,
2013-12-26 14:13:00,48.1,30.8,30.35,North,360,4.0,4.0,51,0.00,,OVC055,0.00,VWS V14.01,2013-12-26 19:13:00,
2013-12-26 14:18:00,48.1,29.9,30.35,NNE,30,2.0,4.0,49,0.00,,OVC055,0.00,VWS V14.01,2013-12-26 19:18:00,
2013-12-26 14:23:00,47.9,30.7,30.35,NE,36,1.0,4.0,51,0.00,,OVC055,0.00,VWS V14.01,2013-12-26 19:23:00,
2013-12-26 14:28:00,47.6,30.4,30.34,NNE,18,0.0,0.0,51,0.00,,OVC055,0.00,VWS V14.01,2013-12-26 19:28:00,
2013-12-26 14:30:00,47.6,30.4,30.35,NNE,18,0.0,4.0,51,0.00,,OVC055,0.00,VWS V14.01,2013-12-26 19:30:00,
2013-12-26 14:33:00,47.5,30.8,30.34,NNE,17,3.0,4.0,52,0.00,,OVC055,0.00,VWS V14.01,2013-12-26 19:33:00,
2013-12-26 14:38:00,47.9,31.1,30.34,NE,37,5.0,6.0,52,0.00,,OVC055,0.00,VWS V14.01,2013-12-26 19:38:00,
2013-12-26 14:43:00,48.2,30.5,30.34,NE,38,5.0,6.0,50,0.00,,OVC055,0.00,VWS V14.01,2013-12-26 19:43:00,
2013-12-26 14:48:00,48.2,31.9,30.35,NE,41,5.0,7.0,53,0.00,,OVC055,0.00,VWS V14.01,2013-12-26 19:48:00,
2013-12-26 14:53:00,48.2,30.0,30.34,NNE,21,6.0,8.0,49,0.00,,OVC055,0.00,VWS V14.01,2013-12-26 19:53:00,
2013-12-26 14:58:00,48.2,30.9,30.34,NNE,28,4.0,5.0,51,0.00,,OVC055,0.00,VWS V14.01,2013-12-26 19:58:00,
2013-12-26 15:00:00,48.2,30.9,30.35,NE,34,5.0,8.0,51,0.00,,OVC055,0.00,VWS V14.01,2013-12-26 20:00:00,
2013-12-26 15:03:00,48.3,31.0,30.34,NNE,24,2.0,7.0,51,0.00,,OVC055,0.00,VWS V14.01,2013-12-26 20:03:00,
2013-12-26 15:08:00,48.2,30.9,30.34,North,5,6.0,7.0,51,0.00,,OVC055,0.00,VWS V14.01,2013-12-26 20:08:00,
2013-12-26 15:13:00,48.2,30.0,30.34,NNE,18,6.0,8.0,49,0.00,,OVC055,0.00,VWS V14.01,2013-12-26 20:13:00,
2013-12-26 15:18:00,48.1,30.4,30.34,NE,34,3.0,8.0,50,0.00,,OVC055,0.00,VWS V14.01,2013-12-26 20:18:00,
2013-12-26 15:23:00,48.1,30.4,30.34,NNE,24,5.0,8.0,50,0.00,,OVC055,0.00,VWS V14.01,2013-12-26 20:23:00,
2013-12-26 15:28:00,48.2,30.5,30.34,NE,44,4.0,4.0,50,0.00,,OVC055,0.00,VWS V14.01,2013-12-26 20:28:00,
2013-12-26 15:30:00,48.2,30.5,30.34,NE,44,4.0,8.0,50,0.00,,OVC055,0.00,VWS V14.01,2013-12-26 20:30:00,
2013-12-26 15:33:00,48.0,29.8,30.34,NNE,28,3.0,7.0,49,0.00,,OVC055,0.00,VWS V14.01,2013-12-26 20:33:00,
2013-12-26 15:38:00,47.9,30.2,30.34,NNE,20,2.0,8.0,50,0.00,,OVC055,0.00,VWS V14.01,2013-12-26 20:38:00,
2013-12-26 15:43:00,47.8,30.1,30.34,NE,36,7.0,8.0,50,0.00,,OVC055,0.00,VWS V14.01,2013-12-26 20:43:00,
2013-12-26 15:48:00,47.7,30.0,30.34,NNE,17,3.0,8.0,50,0.00,,OVC055,0.00,VWS V14.01,2013-12-26 20:48:00,
2013-12-26 15:53:00,47.5,29.8,30.34,NE,39,4.0,8.0,50,0.00,,OVC055,0.00,VWS V14.01,2013-12-26 20:53:00,
2013-12-26 15:58:00,47.4,29.7,30.34,NNE,26,4.0,4.0,50,0.00,,OVC055,0.00,VWS V14.01,2013-12-26 20:58:00,
2013-12-26 16:00:00,47.4,29.7,30.34,NE,34,4.0,8.0,50,0.00,,OVC055,0.00,VWS V14.01,2013-12-26 21:00:00,
2013-12-26 16:03:00,47.2,29.5,30.35,NNE,24,4.0,6.0,50,0.00,,OVC055,0.00,VWS V14.01,2013-12-26 21:03:00,
2013-12-26 16:08:00,47.0,29.3,30.35,NNE,19,5.0,7.0,50,0.00,,OVC055,0.00,VWS V14.01,2013-12-26 21:08:00,
2013-12-26 16:13:00,47.0,29.8,30.35,NE,51,2.0,7.0,51,0.00,,OVC055,0.00,VWS V14.01,2013-12-26 21:13:00,
2013-12-26 16:18:00,46.7,29.5,30.35,NE,35,4.0,7.0,51,0.00,,OVC055,0.00,VWS V14.01,2013-12-26 21:18:00,
2013-12-26 16:23:00,46.6,30.4,30.35,NNW,344,4.0,7.0,53,0.00,,OVC055,0.00,VWS V14.01,2013-12-26 21:23:00,
2013-12-26 16:27:00,46.5,29.4,30.35,NNE,30,3.0,4.0,51,0.00,,OVC055,0.00,VWS V14.01,2013-12-26 21:27:00,
2013-12-26 16:30:00,46.5,29.4,30.35,NNE,30,4.0,7.0,51,0.00,,OVC055,0.00,VWS V14.01,2013-12-26 21:30:00,
2013-12-26 16:32:00,46.2,29.6,30.35,North,5,5.0,5.0,52,0.00,,OVC055,0.00,VWS V14.01,2013-12-26 21:32:00,
2013-12-26 16:37:00,46.1,29.0,30.36,NNE,24,2.0,6.0,51,0.00,,OVC055,0.00,VWS V14.01,2013-12-26 21:37:00,
2013-12-26 16:42:00,46.2,29.6,30.36,NE,41,4.0,7.0,52,0.00,,OVC055,0.00,VWS V14.01,2013-12-26 21:42:00,
2013-12-26 16:47:00,45.9,29.3,30.36,NNE,24,5.0,7.0,52,0.00,,OVC055,0.00,VWS V14.01,2013-12-26 21:47:00,
2013-12-26 16:52:00,45.7,29.6,30.36,NE,43,2.0,7.0,53,0.00,,OVC055,0.00,VWS V14.01,2013-12-26 21:52:00,
2013-12-26 16:57:00,45.2,30.0,30.36,NE,43,0.0,0.0,55,0.00,,OVC055,0.00,VWS V14.01,2013-12-26 21:57:00,
2013-12-26 17:00:00,45.2,30.0,30.36,NE,43,0.0,7.0,55,0.00,,OVC055,0.00,VWS V14.01,2013-12-26 22:00:00,
2013-12-26 17:02:00,44.6,29.5,30.37,NE,43,0.0,1.0,55,0.00,,OVC055,0.00,VWS V14.01,2013-12-26 22:02:00,
2013-12-26 17:07:00,43.9,29.2,30.37,NNE,30,0.0,2.0,56,0.00,,OVC055,0.00,VWS V14.01,2013-12-26 22:07:00,
2013-12-26 17:12:00,43.3,28.7,30.37,NNE,30,0.0,2.0,56,0.00,,OVC055,0.00,VWS V14.01,2013-12-26 22:12:00,
2013-12-26 17:17:00,42.6,28.5,30.37,NNE,30,0.0,2.0,57,0.00,,OVC055,0.00,VWS V14.01,2013-12-26 22:17:00,
2013-12-26 17:22:00,42.2,28.1,30.37,NNE,30,0.0,2.0,57,0.00,,OVC055,0.00,VWS V14.01,2013-12-26 22:22:00,
2013-12-26 17:27:00,42.0,28.3,30.37,NNE,30,0.0,2.0,58,0.00,,OVC055,0.00,VWS V14.01,2013-12-26 22:27:00,
2013-12-26 17:30:00,42.0,28.3,30.37,NNE,30,0.0,2.0,58,0.00,,OVC055,0.00,VWS V14.01,2013-12-26 22:30:00,
2013-12-26 17:32:00,42.0,28.3,30.38,North,10,0.0,3.0,58,0.00,,OVC055,0.00,VWS V14.01,2013-12-26 22:32:00,
2013-12-26 17:35:00,42.0,28.3,30.38,North,10,0.0,3.0,58,0.00,,OVC055,0.00,VWS V14.01,2013-12-26 22:35:00,
2013-12-26 17:40:00,41.7,28.0,30.38,North,10,0.0,3.0,58,0.00,,OVC055,0.00,VWS V14.01,2013-12-26 22:40:00,
2013-12-26 17:45:00,41.3,28.1,30.38,North,10,0.0,3.0,59,0.00,,OVC055,0.00,VWS V14.01,2013-12-26 22:45:00,
2013-12-26 17:50:00,40.6,27.8,30.38,North,10,0.0,3.0,60,0.00,,OVC055,0.00,VWS V14.01,2013-12-26 22:50:00,
2013-12-26 17:55:00,40.1,27.4,30.38,North,10,0.0,3.0,60,0.00,,OVC055,0.00,VWS V14.01,2013-12-26 22:55:00,
2013-12-26 18:00:00,39.8,27.9,30.39,North,10,0.0,0.0,62,0.00,,OVC055,0.00,VWS V14.01,2013-12-26 23:00:00,
2013-12-26 18:05:00,39.3,27.8,30.39,North,10,0.0,0.0,63,0.00,,OVC055,0.00,VWS V14.01,2013-12-26 23:05:00,
2013-12-26 18:10:00,38.8,27.3,30.39,North,10,0.0,0.0,63,0.00,,OVC055,0.00,VWS V14.01,2013-12-26 23:10:00,
2013-12-26 18:15:00,38.3,27.2,30.39,North,10,0.0,1.0,64,0.00,,OVC055,0.00,VWS V14.01,2013-12-26 23:15:00,
2013-12-26 18:20:00,38.0,27.3,30.39,North,10,0.0,1.0,65,0.00,,OVC055,0.00,VWS V14.01,2013-12-26 23:20:00,
2013-12-26 18:25:00,37.6,27.6,30.40,North,10,0.0,1.0,67,0.00,,OVC055,0.00,VWS V14.01,2013-12-26 23:25:00,
2013-12-26 18:30:00,37.2,28.0,30.40,North,10,0.0,0.0,69,0.00,,OVC055,0.00,VWS V14.01,2013-12-26 23:30:00,
2013-12-26 18:35:00,36.8,28.3,30.40,North,10,0.0,0.0,71,0.00,,OVC055,0.00,VWS V14.01,2013-12-26 23:35:00,
2013-12-26 18:36:00,36.8,28.3,30.40,North,10,0.0,0.0,71,0.00,,OVC055,0.00,VWS V14.01,2013-12-26 23:36:00,
2013-12-26 18:41:00,35.8,27.0,30.40,North,10,0.0,0.0,70,0.00,,OVC055,0.00,VWS V14.01,2013-12-26 23:41:00,
2013-12-26 18:42:00,35.8,27.0,30.40,North,10,0.0,0.0,70,0.00,,OVC055,0.00,VWS V14.01,2013-12-26 23:42:00,
2013-12-26 18:47:00,35.5,27.0,30.40,North,10,0.0,0.0,71,0.00,,OVC055,0.00,VWS V14.01,2013-12-26 23:47:00,
2013-12-26 18:49:00,35.3,26.9,30.40,North,10,0.0,0.0,71,0.00,,OVC055,0.00,VWS V14.01,2013-12-26 23:49:00,
2013-12-26 18:54:00,34.8,26.7,30.41,North,10,0.0,0.0,72,0.00,,OVC055,0.00,VWS V14.01,2013-12-26 23:54:00,
2013-12-26 18:59:00,34.3,26.6,30.41,North,10,0.0,0.0,73,0.00,,OVC055,0.00,VWS V14.01,2013-12-26 23:59:00,
2013-12-26 19:00:00,34.4,26.7,30.41,North,10,0.0,0.0,73,0.00,,OVC055,0.00,VWS V14.01,2013-12-27 00:00:00,
2013-12-26 19:04:00,34.0,26.9,30.41,North,10,0.0,0.0,75,0.00,,OVC055,0.00,VWS V14.01,2013-12-27 00:04:00,
2013-12-26 19:09:00,33.7,27.3,30.41,North,10,0.0,0.0,77,0.00,,OVC055,0.00,VWS V14.01,2013-12-27 00:09:00,
2013-12-26 19:14:00,33.3,26.9,30.41,North,10,0.0,0.0,77,0.00,,OVC055,0.00,VWS V14.01,2013-12-27 00:14:00,
2013-12-26 19:19:00,32.9,26.8,30.41,North,10,0.0,0.0,78,0.00,,OVC055,0.00,VWS V14.01,2013-12-27 00:19:00,
2013-12-26 19:24:00,32.4,26.6,30.41,North,10,0.0,0.0,79,0.00,,OVC055,0.00,VWS V14.01,2013-12-27 00:24:00,
2013-12-26 19:29:00,32.1,26.3,30.42,North,10,0.0,0.0,79,0.00,,OVC055,0.00,VWS V14.01,2013-12-27 00:29:00,
2013-12-26 19:30:00,32.1,26.3,30.42,North,10,0.0,0.0,79,0.00,,OVC055,0.00,VWS V14.01,2013-12-27 00:30:00,
2013-12-26 19:34:00,31.8,26.4,30.42,North,10,0.0,0.0,80,0.00,,OVC055,0.00,VWS V14.01,2013-12-27 00:34:00,
2013-12-26 19:39:00,31.4,26.0,30.43,North,10,0.0,0.0,80,0.00,,OVC055,0.00,VWS V14.01,2013-12-27 00:39:00,
2013-12-26 19:44:00,31.2,26.1,30.43,North,10,0.0,0.0,81,0.00,,OVC055,0.00,VWS V14.01,2013-12-27 00:44:00,
2013-12-26 19:49:00,31.2,26.4,30.43,North,10,0.0,0.0,82,0.00,,OVC055,0.00,VWS V14.01,2013-12-27 00:49:00,
2013-12-26 19:54:00,31.1,26.5,30.43,North,10,0.0,0.0,83,0.00,,OVC055,0.00,VWS V14.01,2013-12-27 00:54:00,
2013-12-26 19:59:00,30.8,26.3,30.43,North,10,0.0,0.0,83,0.00,,OVC055,0.00,VWS V14.01,2013-12-27 00:59:00,
2013-12-26 20:00:00,31.0,26.5,30.43,North,10,0.0,0.0,83,0.00,,OVC055,0.00,VWS V14.01,2013-12-27 01:00:00,
2013-12-26 20:04:00,30.4,25.9,30.43,North,10,0.0,0.0,83,0.00,,OVC055,0.00,VWS V14.01,2013-12-27 01:04:00,
2013-12-26 20:09:00,30.2,26.2,30.43,North,10,0.0,1.0,85,0.00,,OVC055,0.00,VWS V14.01,2013-12-27 01:09:00,
2013-12-26 20:14:00,30.6,26.6,30.44,North,10,0.0,1.0,85,0.00,,OVC055,0.00,VWS V14.01,2013-12-27 01:14:00,
2013-12-26 20:19:00,30.5,26.5,30.44,North,10,0.0,1.0,85,0.00,,OVC055,0.00,VWS V14.01,2013-12-27 01:19:00,
2013-12-26 20:24:00,30.3,26.3,30.44,North,10,0.0,1.0,85,0.00,,OVC055,0.00,VWS V14.01,2013-12-27 01:24:00,
2013-12-26 20:29:00,30.1,26.4,30.44,North,10,0.0,0.0,86,0.00,,OVC055,0.00,VWS V14.01,2013-12-27 01:29:00,
2013-12-26 20:30:00,30.1,26.4,30.44,North,10,0.0,1.0,86,0.00,,OVC055,0.00,VWS V14.01,2013-12-27 01:30:00,
2013-12-26 20:33:00,29.7,26.0,30.44,North,10,0.0,0.0,86,0.00,,OVC055,0.00,VWS V14.01,2013-12-27 01:33:00,
2013-12-26 20:38:00,29.4,26.0,30.44,North,10,0.0,0.0,87,0.00,,OVC055,0.00,VWS V14.01,2013-12-27 01:38:00,
2013-12-26 20:43:00,29.2,25.8,30.44,North,10,0.0,0.0,87,0.00,,OVC055,0.00,VWS V14.01,2013-12-27 01:43:00,
2013-12-26 20:48:00,29.0,25.9,30.45,North,10,0.0,0.0,88,0.00,,OVC055,0.00,VWS V14.01,2013-12-27 01:48:00,
2013-12-26 20:53:00,28.9,25.8,30.45,North,10,0.0,0.0,88,0.00,,OVC055,0.00,VWS V14.01,2013-12-27 01:53:00,
2013-12-26 20:58:00,28.8,25.7,30.45,North,10,0.0,0.0,88,0.00,,OVC055,0.00,VWS V14.01,2013-12-27 01:58:00,
2013-12-26 21:00:00,28.8,25.7,30.45,North,10,0.0,0.0,88,0.00,,OVC055,0.00,VWS V14.01,2013-12-27 02:00:00,
2013-12-26 21:03:00,28.8,25.7,30.45,North,10,0.0,0.0,88,0.00,,OVC055,0.00,VWS V14.01,2013-12-27 02:03:00,
2013-12-26 21:08:00,28.6,25.5,30.45,North,10,0.0,0.0,88,0.00,,OVC055,0.00,VWS V14.01,2013-12-27 02:08:00,
2013-12-26 21:13:00,28.4,25.9,30.45,North,10,0.0,0.0,90,0.00,,OVC055,0.00,VWS V14.01,2013-12-27 02:13:00,
2013-12-26 21:18:00,28.4,25.9,30.45,North,10,0.0,0.0,90,0.00,,OVC055,0.00,VWS V14.01,2013-12-27 02:18:00,
2013-12-26 21:23:00,28.3,25.8,30.45,North,10,0.0,0.0,90,0.00,,OVC055,0.00,VWS V14.01,2013-12-27 02:23:00,
2013-12-26 21:28:00,28.2,25.6,30.45,North,10,0.0,0.0,90,0.00,,OVC055,0.00,VWS V14.01,2013-12-27 02:28:00,
2013-12-26 21:30:00,28.2,25.6,30.45,North,10,0.0,0.0,90,0.00,,OVC055,0.00,VWS V14.01,2013-12-27 02:30:00,
2013-12-26 21:33:00,28.1,25.5,30.45,North,10,0.0,0.0,90,0.00,,OVC055,0.00,VWS V14.01,2013-12-27 02:33:00,
2013-12-26 21:38:00,27.9,25.6,30.46,North,10,0.0,0.0,91,0.00,,OVC055,0.00,VWS V14.01,2013-12-27 02:38:00,
2013-12-26 21:43:00,27.8,25.5,30.45,North,10,0.0,0.0,91,0.00,,OVC055,0.00,VWS V14.01,2013-12-27 02:43:00,
2013-12-26 21:48:00,27.5,25.2,30.45,North,10,0.0,0.0,91,0.00,,OVC055,0.00,VWS V14.01,2013-12-27 02:48:00,
2013-12-26 21:53:00,27.4,25.1,30.45,North,10,0.0,0.0,91,0.00,,OVC055,0.00,VWS V14.01,2013-12-27 02:53:00,
2013-12-26 21:58:00,27.4,25.4,30.46,North,10,0.0,0.0,92,0.00,,OVC055,0.00,VWS V14.01,2013-12-27 02:58:00,
2013-12-26 22:00:00,27.4,25.4,30.45,North,10,0.0,0.0,92,0.00,,OVC055,0.00,VWS V14.01,2013-12-27 03:00:00,
2013-12-26 22:03:00,27.4,25.4,30.46,North,10,0.0,0.0,92,0.00,,OVC055,0.00,VWS V14.01,2013-12-27 03:03:00,
2013-12-26 22:08:00,27.4,25.4,30.45,North,10,0.0,0.0,92,0.00,,OVC055,0.00,VWS V14.01,2013-12-27 03:08:00,
2013-12-26 22:13:00,27.3,25.3,30.45,North,10,0.0,0.0,92,0.00,,OVC055,0.00,VWS V14.01,2013-12-27 03:13:00,
2013-12-26 22:18:00,27.2,25.2,30.45,North,10,0.0,0.0,92,0.00,,OVC055,0.00,VWS V14.01,2013-12-27 03:18:00,
2013-12-26 22:23:00,27.2,25.2,30.46,North,10,0.0,0.0,92,0.00,,OVC055,0.00,VWS V14.01,2013-12-27 03:23:00,
2013-12-26 22:28:00,27.1,25.4,30.46,North,10,0.0,0.0,93,0.00,,OVC055,0.00,VWS V14.01,2013-12-27 03:28:00,
2013-12-26 22:30:00,27.1,25.4,30.46,North,10,0.0,0.0,93,0.00,,OVC055,0.00,VWS V14.01,2013-12-27 03:30:00,
2013-12-26 22:33:00,27.0,25.2,30.46,North,10,0.0,0.0,93,0.00,,OVC055,0.00,VWS V14.01,2013-12-27 03:33:00,
2013-12-26 22:38:00,26.9,25.1,30.46,North,10,0.0,0.0,93,0.00,,OVC055,0.00,VWS V14.01,2013-12-27 03:38:00,
2013-12-26 22:43:00,26.9,25.1,30.46,North,10,0.0,0.0,93,0.00,,OVC055,0.00,VWS V14.01,2013-12-27 03:43:00,
2013-12-26 22:48:00,26.7,25.0,30.46,North,10,0.0,0.0,93,0.00,,OVC055,0.00,VWS V14.01,2013-12-27 03:48:00,
2013-12-26 22:53:00,26.7,25.2,30.46,North,10,0.0,0.0,94,0.00,,OVC055,0.00,VWS V14.01,2013-12-27 03:53:00,
2013-12-26 22:58:00,26.6,25.1,30.46,North,10,0.0,0.0,94,0.00,,OVC055,0.00,VWS V14.01,2013-12-27 03:58:00,
2013-12-26 23:00:00,26.6,25.1,30.46,North,10,0.0,0.0,94,0.00,,OVC055,0.00,VWS V14.01,2013-12-27 04:00:00,
2013-12-26 23:03:00,26.6,25.1,30.46,North,10,0.0,0.0,94,0.00,,OVC055,0.00,VWS V14.01,2013-12-27 04:03:00,
2013-12-26 23:08:00,26.6,25.4,30.46,North,10,0.0,0.0,95,0.00,,OVC055,0.00,VWS V14.01,2013-12-27 04:08:00,
2013-12-26 23:13:00,26.5,25.0,30.46,North,10,0.0,0.0,94,0.00,,OVC055,0.00,VWS V14.01,2013-12-27 04:13:00,
2013-12-26 23:18:00,26.5,25.3,30.46,North,10,0.0,0.0,95,0.00,,OVC055,0.00,VWS V14.01,2013-12-27 04:18:00,
2013-12-26 23:23:00,26.4,24.9,30.46,North,10,0.0,0.0,94,0.00,,OVC055,0.00,VWS V14.01,2013-12-27 04:23:00,
2013-12-26 23:28:00,26.3,24.8,30.45,North,10,0.0,0.0,94,0.00,,OVC055,0.00,VWS V14.01,2013-12-27 04:28:00,
2013-12-26 23:30:00,26.3,24.8,30.45,North,10,0.0,0.0,94,0.00,,OVC055,0.00,VWS V14.01,2013-12-27 04:30:00,
2013-12-26 23:33:00,26.2,25.0,30.45,North,10,0.0,0.0,95,0.00,,OVC055,0.00,VWS V14.01,2013-12-27 04:33:00,
2013-12-26 23:38:00,26.1,24.9,30.45,North,10,0.0,0.0,95,0.00,,OVC055,0.00,VWS V14.01,2013-12-27 04:38:00,
2013-12-26 23:43:00,26.0,24.8,30.45,North,10,0.0,0.0,95,0.00,,OVC055,0.00,VWS V14.01,2013-12-27 04:43:00,
2013-12-26 23:48:00,26.0,24.8,30.45,North,10,0.0,0.0,95,0.00,,OVC055,0.00,VWS V14.01,2013-12-27 04:48:00,
2013-12-26 23:53:00,26.0,24.8,30.45,North,10,0.0,0.0,95,0.00,,OVC055,0.00,VWS V14.01,2013-12-27 04:53:00,
2013-12-26 23:58:00,26.0,24.8,30.46,North,10,0.0,0.0,95,0.00,,OVC055,0.00,VWS V14.01,2013-12-27 04:58:00,